Archival Weather

Joint Base Andrews

Camp Springs, Maryland (KADW)

Report from: Tuesday, February 27, 2024 6:55 PM EST
Current time: Wednesday, May 29, 2024 7:57 PM EDT

Current weather – Weather history – Daily summaries
Weather forecast

Temperature14.6°C (58.3°F)
Dew point10.8°C (51.4°F)
Winds 15 kts (7.7 m/s, 17.3 mph) South (190°)
Visibility10 mi. (16.1 km)
Clouds Ceiling: Overcast 1,900 ft. (579 m)
Altimeter29.82 in.Hg (1010 mB)
Precip last 3 hours0.03 in. (1 mm)
Relative humidity78 %
Density altitude228 ft. (70 m)
Sea-level pressure101.1 kPa (1011 mB, 29.84 in.Hg)
Max temp last 6 hours17.6°C (63.7°F)
Min temp last 6 hours13.6°C (56.5°F)
Remarks Fully automated report
System requires maintenance
Automated weather observing station with precipitation discriminator
Ceiling ceiling
Pressure rising more quickly
Flight conditions Marginal Visual Meteorological Conditions
Raw dataKADW 272355Z AUTO 19015KT 10SM OVC019 15/11 A2982 RMK AO2 CIG 017 RWY01L CIG 018 RWY19L SLP105 60003 T01460108 10176 20136 53000 $
An error has occurred. This application may no longer respond until reloaded. Reload 🗙